createdAt,value
2019-03-10T00:00:57.328Z,1006.99
2019-03-10T00:01:57.305Z,1007.01
2019-03-10T00:02:57.274Z,1006.99
2019-03-10T00:03:57.243Z,1006.95
2019-03-10T00:04:57.217Z,1006.91
2019-03-10T00:05:57.240Z,1006.90
2019-03-10T00:06:57.179Z,1006.91
2019-03-10T00:07:57.155Z,1006.90
2019-03-10T00:08:57.128Z,1006.89
2019-03-10T00:09:57.098Z,1006.90
2019-03-10T00:10:57.079Z,1006.87
2019-03-10T00:11:57.049Z,1006.84
2019-03-10T00:12:57.033Z,1006.83
2019-03-10T00:13:57.015Z,1006.82
2019-03-10T00:14:56.978Z,1006.85
2019-03-10T00:15:56.955Z,1006.84
2019-03-10T00:16:56.929Z,1006.83
2019-03-10T00:17:56.913Z,1006.88
2019-03-10T00:18:56.891Z,1006.88
2019-03-10T00:19:56.867Z,1006.82
2019-03-10T00:20:56.832Z,1006.80
2019-03-10T00:21:56.817Z,1006.83
2019-03-10T00:22:56.793Z,1006.82
2019-03-10T00:23:56.760Z,1006.79
2019-03-10T00:24:56.737Z,1006.73
2019-03-10T00:25:56.713Z,1006.74
2019-03-10T00:26:56.694Z,1006.77
2019-03-10T00:27:56.665Z,1006.76
2019-03-10T00:28:56.640Z,1006.79
2019-03-10T00:29:56.625Z,1006.76
2019-03-10T00:30:56.601Z,1006.69
2019-03-10T00:31:56.586Z,1006.70
2019-03-10T00:32:56.542Z,1006.66
2019-03-10T00:33:56.519Z,1006.69
2019-03-10T00:34:56.495Z,1006.67
2019-03-10T00:35:56.475Z,1006.65
2019-03-10T00:36:56.448Z,1006.61
2019-03-10T00:37:56.431Z,1006.57
2019-03-10T00:38:56.414Z,1006.58
2019-03-10T00:39:56.374Z,1006.50
2019-03-10T00:40:56.349Z,1006.56
2019-03-10T00:41:56.323Z,1006.55
2019-03-10T00:42:56.326Z,1006.52
2019-03-10T00:43:56.276Z,1006.47
2019-03-10T00:44:56.250Z,1006.46
2019-03-10T00:45:56.230Z,1006.52
2019-03-10T00:46:56.207Z,1006.49
2019-03-10T00:47:56.182Z,1006.44
2019-03-10T00:48:56.167Z,1006.40
2019-03-10T00:49:56.133Z,1006.40
2019-03-10T00:50:56.113Z,1006.42
2019-03-10T00:51:56.081Z,1006.42
2019-03-10T00:52:56.060Z,1006.41
2019-03-10T00:53:56.041Z,1006.45
2019-03-10T00:54:56.007Z,1006.41
2019-03-10T00:55:55.992Z,1006.37
2019-03-10T00:56:55.964Z,1006.34
2019-03-10T00:57:55.934Z,1006.36
2019-03-10T00:58:55.912Z,1006.30
2019-03-10T00:59:55.887Z,1006.30
2019-03-10T01:00:55.870Z,1006.28
2019-03-10T01:01:55.838Z,1006.26
2019-03-10T01:02:55.820Z,1006.28
2019-03-10T01:03:55.788Z,1006.27
2019-03-10T01:04:55.764Z,1006.27
2019-03-10T01:05:55.750Z,1006.19
2019-03-10T01:06:55.718Z,1006.22
2019-03-10T01:07:55.695Z,1006.18
2019-03-10T01:08:55.673Z,1006.15
2019-03-10T01:09:55.643Z,1006.14
2019-03-10T01:10:55.620Z,1006.20
2019-03-10T01:11:55.594Z,1006.17
2019-03-10T01:12:55.571Z,1006.17
2019-03-10T01:13:55.549Z,1006.06
2019-03-10T01:14:55.558Z,1006.03
2019-03-10T01:15:55.497Z,1006.07
2019-03-10T01:16:55.480Z,1006.12
2019-03-10T01:17:55.453Z,1006.11
2019-03-10T01:18:55.424Z,1006.12
2019-03-10T01:19:55.399Z,1006.04
2019-03-10T01:20:55.380Z,1005.96
2019-03-10T01:21:55.350Z,1006.02
2019-03-10T01:22:55.330Z,1006.00
2019-03-10T01:23:55.320Z,1005.98
2019-03-10T01:24:55.293Z,1005.99
2019-03-10T01:25:55.272Z,1005.92
2019-03-10T01:26:55.263Z,1005.89
2019-03-10T01:27:55.221Z,1005.85
2019-03-10T01:28:55.184Z,1005.85
2019-03-10T01:29:55.161Z,1005.83
2019-03-10T01:30:55.134Z,1005.76
2019-03-10T01:31:55.118Z,1005.80
2019-03-10T01:32:55.096Z,1005.71
2019-03-10T01:33:55.061Z,1005.74
2019-03-10T01:34:55.042Z,1005.71
2019-03-10T01:35:55.021Z,1005.66
2019-03-10T01:36:54.987Z,1005.69
2019-03-10T01:37:54.962Z,1005.60
2019-03-10T01:38:54.939Z,1005.52
2019-03-10T01:39:54.917Z,1005.56
2019-03-10T01:40:54.895Z,1005.54
2019-03-10T01:41:54.865Z,1005.53
2019-03-10T01:42:54.842Z,1005.56
2019-03-10T01:43:54.820Z,1005.56
2019-03-10T01:44:54.796Z,1005.55
2019-03-10T01:45:54.771Z,1005.57
2019-03-10T01:46:54.749Z,1005.51
2019-03-10T01:47:54.718Z,1005.52
2019-03-10T01:48:54.695Z,1005.54
2019-03-10T01:49:54.671Z,1005.59
2019-03-10T01:50:54.647Z,1005.52
2019-03-10T01:51:54.620Z,1005.54
2019-03-10T01:52:54.597Z,1005.53
2019-03-10T01:53:54.575Z,1005.48
2019-03-10T01:54:54.549Z,1005.43
2019-03-10T01:55:54.532Z,1005.41
2019-03-10T01:56:54.504Z,1005.32
2019-03-10T01:57:54.486Z,1005.34
2019-03-10T01:58:54.469Z,1005.35
2019-03-10T01:59:54.427Z,1005.34
2019-03-10T02:00:54.404Z,1005.37
2019-03-10T02:01:54.379Z,1005.36
2019-03-10T02:02:54.364Z,1005.32
2019-03-10T02:03:54.328Z,1005.29
2019-03-10T02:04:54.306Z,1005.24
2019-03-10T02:05:54.281Z,1005.20
2019-03-10T02:06:54.263Z,1005.18
2019-03-10T02:07:54.242Z,1005.16
2019-03-10T02:08:54.209Z,1005.13
2019-03-10T02:09:54.183Z,1005.15
2019-03-10T02:10:54.165Z,1005.14
2019-03-10T02:11:54.142Z,1005.09
2019-03-10T02:12:54.113Z,1005.07
2019-03-10T02:13:54.095Z,1004.96
2019-03-10T02:14:54.063Z,1004.93
2019-03-10T02:15:54.037Z,1004.90
2019-03-10T02:16:54.014Z,1004.91
2019-03-10T02:17:53.989Z,1004.85
2019-03-10T02:18:53.979Z,1004.78
2019-03-10T02:19:53.941Z,1004.81
2019-03-10T02:20:53.917Z,1004.75
2019-03-10T02:21:53.892Z,1004.74
2019-03-10T02:22:53.870Z,1004.74
2019-03-10T02:23:53.842Z,1004.72
2019-03-10T02:24:53.822Z,1004.71
2019-03-10T02:25:53.798Z,1004.72
2019-03-10T02:26:53.772Z,1004.66
2019-03-10T02:27:53.755Z,1004.66
2019-03-10T02:28:53.724Z,1004.62
2019-03-10T02:29:53.700Z,1004.59
2019-03-10T02:30:53.676Z,1004.56
2019-03-10T02:31:53.655Z,1004.54
2019-03-10T02:32:53.626Z,1004.48
2019-03-10T02:33:53.601Z,1004.46
2019-03-10T02:34:53.584Z,1004.42
2019-03-10T02:35:53.552Z,1004.39
2019-03-10T02:36:53.532Z,1004.43
2019-03-10T02:37:53.504Z,1004.37
2019-03-10T02:38:53.481Z,1004.36
2019-03-10T02:39:53.456Z,1004.30
2019-03-10T02:40:53.435Z,1004.27
2019-03-10T02:41:53.406Z,1004.21
2019-03-10T02:42:53.398Z,1004.18
2019-03-10T02:43:53.361Z,1004.18
2019-03-10T02:44:53.337Z,1004.14
2019-03-10T02:45:53.310Z,1004.13
2019-03-10T02:46:53.286Z,1004.13
2019-03-10T02:47:53.261Z,1004.10
2019-03-10T02:48:53.245Z,1004.09
2019-03-10T02:49:53.214Z,1004.12
2019-03-10T02:50:53.188Z,1004.09
2019-03-10T02:51:53.164Z,1004.07
2019-03-10T02:52:53.144Z,1004.07
2019-03-10T02:53:53.127Z,1004.03
2019-03-10T02:54:53.102Z,1004.01
2019-03-10T02:55:53.075Z,1003.94
2019-03-10T02:56:53.049Z,1003.97
2019-03-10T02:57:53.021Z,1003.97
2019-03-10T02:58:52.998Z,1003.94
2019-03-10T02:59:52.973Z,1003.95
2019-03-10T03:00:52.963Z,1003.91
2019-03-10T03:01:52.924Z,1003.91
2019-03-10T03:02:52.977Z,1003.83
2019-03-10T03:03:52.874Z,1003.88
2019-03-10T03:04:52.866Z,1003.88
2019-03-10T03:05:52.832Z,1003.88
2019-03-10T03:06:52.814Z,1003.85
2019-03-10T03:07:52.778Z,1003.87
2019-03-10T03:08:52.754Z,1003.83
2019-03-10T03:09:52.732Z,1003.81
2019-03-10T03:10:52.707Z,1003.78
2019-03-10T03:11:52.682Z,1003.75
2019-03-10T03:12:52.658Z,1003.70
2019-03-10T03:13:52.635Z,1003.68
2019-03-10T03:14:52.686Z,1003.65
2019-03-10T03:15:52.590Z,1003.64
2019-03-10T03:16:52.960Z,1003.62
2019-03-10T03:17:52.552Z,1003.58
2019-03-10T03:18:52.515Z,1003.50
2019-03-10T03:19:52.489Z,1003.55
2019-03-10T03:20:52.476Z,1003.49
2019-03-10T03:21:52.445Z,1003.47
2019-03-10T03:22:52.419Z,1003.45
2019-03-10T03:23:52.394Z,1003.42
2019-03-10T03:24:52.446Z,1003.49
2019-03-10T03:25:52.348Z,1003.45
2019-03-10T03:26:52.334Z,1003.45
2019-03-10T03:27:52.297Z,1003.40
2019-03-10T03:28:52.283Z,1003.40
2019-03-10T03:29:52.251Z,1003.40
2019-03-10T03:30:52.231Z,1003.35
2019-03-10T03:31:52.221Z,1003.38
2019-03-10T03:32:52.217Z,1003.33
2019-03-10T03:33:52.154Z,1003.32
2019-03-10T03:34:52.146Z,1003.26
2019-03-10T03:35:52.106Z,1003.27
2019-03-10T03:36:52.081Z,1003.24
2019-03-10T03:37:52.058Z,1003.22
2019-03-10T03:38:52.039Z,1003.16
2019-03-10T03:39:52.009Z,1003.08
2019-03-10T03:40:51.987Z,1003.04
2019-03-10T03:41:51.963Z,1003.02
2019-03-10T03:42:51.951Z,1003.03
2019-03-10T03:43:51.916Z,1002.99
2019-03-10T03:44:51.893Z,1002.92
2019-03-10T03:45:51.867Z,1002.94
2019-03-10T03:46:51.994Z,1002.93
2019-03-10T03:47:51.819Z,1002.89
2019-03-10T03:48:51.795Z,1002.87
2019-03-10T03:49:51.771Z,1002.81
2019-03-10T03:50:51.748Z,1002.80
2019-03-10T03:51:51.724Z,1002.77
2019-03-10T03:52:51.700Z,1002.75
2019-03-10T03:53:51.687Z,1002.73
2019-03-10T03:54:51.656Z,1002.77
2019-03-10T03:55:51.649Z,1002.77
2019-03-10T03:56:51.605Z,1002.79
2019-03-10T03:57:51.582Z,1002.77
2019-03-10T03:58:51.567Z,1002.72
2019-03-10T03:59:51.538Z,1002.72
2019-03-10T04:00:51.509Z,1002.71
2019-03-10T04:01:51.486Z,1002.69
2019-03-10T04:02:51.463Z,1002.65
2019-03-10T04:03:51.437Z,1002.67
2019-03-10T04:04:51.414Z,1002.56
2019-03-10T04:05:51.391Z,1002.55
2019-03-10T04:06:51.372Z,1002.55
2019-03-10T04:07:51.344Z,1002.51
2019-03-10T04:08:51.455Z,1002.49
2019-03-10T04:09:51.294Z,1002.46
2019-03-10T04:10:51.272Z,1002.44
2019-03-10T04:11:51.249Z,1002.45
2019-03-10T04:12:51.220Z,1002.42
2019-03-10T04:13:51.197Z,1002.44
2019-03-10T04:14:51.233Z,1002.40
2019-03-10T04:15:51.167Z,1002.36
2019-03-10T04:16:51.128Z,1002.34
2019-03-10T04:17:51.103Z,1002.38
2019-03-10T04:18:51.079Z,1002.33
2019-03-10T04:19:51.056Z,1002.32
2019-03-10T04:20:51.030Z,1002.41
2019-03-10T04:21:51.007Z,1002.30
2019-03-10T04:22:50.986Z,1002.27
2019-03-10T04:23:50.956Z,1002.31
2019-03-10T04:24:50.945Z,1002.28
2019-03-10T04:25:50.918Z,1002.26
2019-03-10T04:26:50.888Z,1002.25
2019-03-10T04:27:50.861Z,1002.27
2019-03-10T04:28:50.842Z,1002.26
2019-03-10T04:29:50.817Z,1002.22
2019-03-10T04:30:50.790Z,1002.20
2019-03-10T04:31:50.772Z,1002.16
2019-03-10T04:32:50.741Z,1002.13
2019-03-10T04:33:50.717Z,1002.09
2019-03-10T04:34:50.693Z,1002.05
2019-03-10T04:35:50.672Z,1002.08
2019-03-10T04:36:50.644Z,1002.04
2019-03-10T04:37:50.622Z,1002.00
2019-03-10T04:38:50.597Z,1002.00
2019-03-10T04:39:50.574Z,1001.99
2019-03-10T04:40:50.549Z,1001.93
2019-03-10T04:41:50.526Z,1001.91
2019-03-10T04:42:50.503Z,1001.89
2019-03-10T04:43:50.478Z,1001.86
2019-03-10T04:44:50.451Z,1001.81
2019-03-10T04:45:50.429Z,1001.79
2019-03-10T04:46:50.413Z,1001.76
2019-03-10T04:47:50.380Z,1001.79
2019-03-10T04:48:50.359Z,1001.73
2019-03-10T04:49:50.335Z,1001.71
2019-03-10T04:50:50.309Z,1001.73
2019-03-10T04:51:50.286Z,1001.72
2019-03-10T04:52:50.263Z,1001.64
2019-03-10T04:53:50.239Z,1001.62
2019-03-10T04:54:50.214Z,1001.60
2019-03-10T04:55:50.188Z,1001.62
2019-03-10T04:56:50.166Z,1001.61
2019-03-10T04:57:50.144Z,1001.66
2019-03-10T04:58:50.119Z,1001.63
2019-03-10T04:59:50.093Z,1001.65
2019-03-10T05:00:50.071Z,1001.58
2019-03-10T05:01:50.045Z,1001.58
2019-03-10T05:02:50.031Z,1001.55
2019-03-10T05:03:49.997Z,1001.60
2019-03-10T05:04:49.976Z,1001.54
2019-03-10T05:05:49.953Z,1001.50
2019-03-10T05:06:49.927Z,1001.50
2019-03-10T05:07:49.902Z,1001.57
2019-03-10T05:08:49.877Z,1001.48
2019-03-10T05:09:49.852Z,1001.43
2019-03-10T05:10:49.833Z,1001.44
2019-03-10T05:11:49.807Z,1001.40
2019-03-10T05:12:49.781Z,1001.41
2019-03-10T05:13:49.765Z,1001.43
2019-03-10T05:14:49.742Z,1001.38
2019-03-10T05:15:49.710Z,1001.36
2019-03-10T05:16:49.686Z,1001.32
2019-03-10T05:17:49.660Z,1001.32
2019-03-10T05:18:49.641Z,1001.29
2019-03-10T05:19:49.613Z,1001.26
2019-03-10T05:20:49.587Z,1001.20
2019-03-10T05:21:49.565Z,1001.17
2019-03-10T05:22:49.541Z,1001.12
2019-03-10T05:23:49.522Z,1001.08
2019-03-10T05:24:49.492Z,1001.11
2019-03-10T05:25:49.470Z,1001.07
2019-03-10T05:26:49.491Z,1001.02
2019-03-10T05:27:49.420Z,1001.01
2019-03-10T05:28:49.399Z,1001.04
2019-03-10T05:29:49.373Z,1001.02
2019-03-10T05:30:49.350Z,1000.98
2019-03-10T05:31:49.325Z,1000.92
2019-03-10T05:32:49.301Z,1000.90
2019-03-10T05:33:49.277Z,1000.87
2019-03-10T05:34:49.256Z,1000.88
2019-03-10T05:35:49.227Z,1000.86
2019-03-10T05:36:49.205Z,1000.85
2019-03-10T05:37:49.182Z,1000.81
2019-03-10T05:38:49.157Z,1000.76
2019-03-10T05:39:49.142Z,1000.70
2019-03-10T05:40:49.112Z,1000.70
2019-03-10T05:41:49.099Z,1000.69
2019-03-10T05:42:49.061Z,1000.63
2019-03-10T05:43:49.039Z,1000.62
2019-03-10T05:44:49.013Z,1000.58
2019-03-10T05:45:48.992Z,1000.57
2019-03-10T05:46:48.967Z,1000.56
2019-03-10T05:47:48.943Z,1000.53
2019-03-10T05:48:48.918Z,1000.55
2019-03-10T05:49:48.895Z,1000.52
2019-03-10T05:50:48.879Z,1000.51
2019-03-10T05:51:48.848Z,1000.46
2019-03-10T05:52:48.822Z,1000.41
2019-03-10T05:53:48.797Z,1000.39
2019-03-10T05:54:48.775Z,1000.32
2019-03-10T05:55:48.754Z,1000.29
2019-03-10T05:56:48.725Z,1000.23
2019-03-10T05:57:48.700Z,1000.23
2019-03-10T05:58:48.678Z,1000.18
2019-03-10T05:59:48.653Z,1000.16
2019-03-10T06:00:48.628Z,1000.07
2019-03-10T06:01:48.605Z,1000.10
2019-03-10T06:02:48.582Z,1000.03
2019-03-10T06:03:48.558Z,1000.00
2019-03-10T06:04:48.532Z,1000.01
2019-03-10T06:05:48.510Z,999.98
2019-03-10T06:06:48.485Z,999.93
2019-03-10T06:07:48.460Z,999.91
2019-03-10T06:08:48.436Z,999.93
2019-03-10T06:09:48.413Z,999.91
2019-03-10T06:10:48.390Z,999.86
2019-03-10T06:11:48.362Z,999.80
2019-03-10T06:12:48.341Z,999.77
2019-03-10T06:13:48.328Z,999.83
2019-03-10T06:14:48.301Z,999.83
2019-03-10T06:15:48.268Z,999.86
2019-03-10T06:16:48.244Z,999.79
2019-03-10T06:17:48.220Z,999.76
2019-03-10T06:18:48.242Z,999.70
2019-03-10T06:19:48.172Z,999.71
2019-03-10T06:20:48.171Z,999.65
2019-03-10T06:21:48.124Z,999.62
2019-03-10T06:22:48.108Z,999.60
2019-03-10T06:23:48.080Z,999.59
2019-03-10T06:24:48.054Z,999.56
2019-03-10T06:25:48.030Z,999.47
2019-03-10T06:26:48.009Z,999.46
2019-03-10T06:27:47.981Z,999.43
2019-03-10T06:28:47.969Z,999.39
2019-03-10T06:29:47.938Z,999.38
2019-03-10T06:30:47.912Z,999.33
2019-03-10T06:31:47.886Z,999.29
2019-03-10T06:32:47.870Z,999.27
2019-03-10T06:33:47.840Z,999.25
2019-03-10T06:34:47.813Z,999.23
2019-03-10T06:35:47.792Z,999.20
2019-03-10T06:36:47.767Z,999.21
2019-03-10T06:37:47.743Z,999.19
2019-03-10T06:38:47.718Z,999.19
2019-03-10T06:39:47.693Z,999.11
2019-03-10T06:40:47.674Z,999.09
2019-03-10T06:41:47.645Z,999.04
2019-03-10T06:42:47.622Z,999.00
2019-03-10T06:43:47.596Z,998.98
2019-03-10T06:44:47.572Z,998.99
2019-03-10T06:45:47.550Z,998.94
2019-03-10T06:46:47.542Z,998.91
2019-03-10T06:47:47.512Z,998.85
2019-03-10T06:48:47.476Z,998.79
2019-03-10T06:49:47.452Z,998.76
2019-03-10T06:50:47.431Z,998.78
2019-03-10T06:51:47.406Z,998.74
2019-03-10T06:52:47.380Z,998.70
2019-03-10T06:53:47.356Z,998.70
2019-03-10T06:54:47.346Z,998.65
2019-03-10T06:55:47.315Z,998.68
2019-03-10T06:56:47.283Z,998.67
2019-03-10T06:57:47.260Z,998.65
2019-03-10T06:58:47.236Z,998.63
2019-03-10T06:59:49.662Z,998.63
2019-03-10T07:00:47.188Z,998.66
2019-03-10T07:01:47.217Z,998.58
2019-03-10T07:02:47.143Z,998.57
2019-03-10T07:03:47.114Z,998.51
2019-03-10T07:04:47.090Z,998.47
2019-03-10T07:05:47.066Z,998.45
2019-03-10T07:06:47.042Z,998.39
2019-03-10T07:07:47.024Z,998.41
2019-03-10T07:08:47.002Z,998.41
2019-03-10T07:09:46.970Z,998.34
2019-03-10T07:10:46.953Z,998.26
2019-03-10T07:11:46.920Z,998.27
2019-03-10T07:12:46.906Z,998.21
2019-03-10T07:13:46.878Z,998.18
2019-03-10T07:14:46.871Z,998.18
2019-03-10T07:15:46.824Z,998.16
2019-03-10T07:16:46.801Z,998.17
2019-03-10T07:17:46.785Z,998.15
2019-03-10T07:18:46.761Z,998.14
2019-03-10T07:19:46.729Z,998.13
2019-03-10T07:20:46.708Z,998.12
2019-03-10T07:21:46.680Z,998.18
2019-03-10T07:22:46.658Z,998.14
2019-03-10T07:23:46.643Z,998.08
2019-03-10T07:24:46.609Z,998.02
2019-03-10T07:25:46.595Z,998.06
2019-03-10T07:26:46.567Z,998.10
2019-03-10T07:27:46.532Z,998.01
2019-03-10T07:28:46.510Z,997.96
2019-03-10T07:29:46.486Z,997.95
2019-03-10T07:30:46.462Z,997.91
2019-03-10T07:31:46.436Z,997.91
2019-03-10T07:32:46.410Z,997.96
2019-03-10T07:33:46.396Z,997.96
2019-03-10T07:34:46.364Z,997.96
2019-03-10T07:35:46.337Z,997.95
2019-03-10T07:36:46.324Z,997.93
2019-03-10T07:37:46.289Z,997.91
2019-03-10T07:38:46.267Z,997.90
2019-03-10T07:39:46.296Z,997.91
2019-03-10T07:40:46.216Z,997.84
2019-03-10T07:41:46.200Z,997.81
2019-03-10T07:42:46.167Z,997.75
2019-03-10T07:43:46.176Z,997.72
2019-03-10T07:44:46.119Z,997.58
2019-03-10T07:45:46.093Z,997.55
2019-03-10T07:46:46.077Z,997.52
2019-03-10T07:47:46.057Z,997.54
2019-03-10T07:48:46.021Z,997.47
2019-03-10T07:49:45.995Z,997.44
2019-03-10T07:50:45.973Z,997.43
2019-03-10T07:51:45.959Z,997.40
2019-03-10T07:52:45.922Z,997.41
2019-03-10T07:53:45.906Z,997.38
2019-03-10T07:54:45.874Z,997.37
2019-03-10T07:55:45.863Z,997.34
2019-03-10T07:56:45.830Z,997.30
2019-03-10T07:57:45.806Z,997.27
2019-03-10T07:58:45.778Z,997.27
2019-03-10T07:59:45.752Z,997.24
2019-03-10T08:00:45.725Z,997.26
2019-03-10T08:01:45.703Z,997.25
2019-03-10T08:02:45.691Z,997.21
2019-03-10T08:03:45.652Z,997.15
2019-03-10T08:04:45.630Z,997.10
2019-03-10T08:05:45.614Z,997.04
2019-03-10T08:06:45.586Z,997.10
2019-03-10T08:07:45.563Z,997.04
2019-03-10T08:08:45.531Z,997.06
2019-03-10T08:09:45.507Z,997.05
2019-03-10T08:10:45.483Z,997.07
2019-03-10T08:11:45.458Z,997.04
2019-03-10T08:12:45.433Z,997.08
2019-03-10T08:13:45.418Z,997.07
2019-03-10T08:14:45.385Z,997.07
2019-03-10T08:15:45.361Z,996.99
2019-03-10T08:16:45.343Z,996.93
2019-03-10T08:17:45.311Z,996.89
2019-03-10T08:18:45.300Z,996.81
2019-03-10T08:19:45.278Z,996.78
2019-03-10T08:20:45.247Z,996.73
2019-03-10T08:21:45.211Z,996.72
2019-03-10T08:22:45.192Z,996.68
2019-03-10T08:23:45.165Z,996.66
2019-03-10T08:24:45.139Z,996.70
2019-03-10T08:25:45.118Z,996.71
2019-03-10T08:26:45.089Z,996.65
2019-03-10T08:27:45.068Z,996.62
2019-03-10T08:28:45.053Z,996.60
2019-03-10T08:29:45.025Z,996.58
2019-03-10T08:30:44.998Z,996.57
2019-03-10T08:31:44.976Z,996.55
2019-03-10T08:32:44.949Z,996.53
2019-03-10T08:33:44.918Z,996.50
2019-03-10T08:34:44.893Z,996.49
2019-03-10T08:35:44.867Z,996.48
2019-03-10T08:36:44.851Z,996.51
2019-03-10T08:37:44.820Z,996.43
2019-03-10T08:38:44.795Z,996.41
2019-03-10T08:39:44.771Z,996.46
2019-03-10T08:40:44.746Z,996.45
2019-03-10T08:41:44.731Z,996.42
2019-03-10T08:42:44.701Z,996.38
2019-03-10T08:43:44.680Z,996.39
2019-03-10T08:44:44.654Z,996.38
2019-03-10T08:45:44.625Z,996.36
2019-03-10T08:46:44.600Z,996.32
2019-03-10T08:47:44.582Z,996.27
2019-03-10T08:48:44.551Z,996.22
2019-03-10T08:49:45.553Z,996.15
2019-03-10T08:50:44.502Z,996.14
2019-03-10T08:51:44.487Z,996.15
2019-03-10T08:52:44.454Z,996.12
2019-03-10T08:53:44.429Z,996.07
2019-03-10T08:54:44.406Z,996.02
2019-03-10T08:55:44.390Z,995.95
2019-03-10T08:56:44.364Z,995.98
2019-03-10T08:57:44.333Z,996.00
2019-03-10T08:58:44.327Z,995.98
2019-03-10T08:59:44.284Z,995.96
2019-03-10T09:00:44.262Z,996.01
2019-03-10T09:01:44.254Z,995.99
2019-03-10T09:02:44.218Z,996.00
2019-03-10T09:03:44.185Z,995.95
2019-03-10T09:04:44.166Z,995.91
2019-03-10T09:05:44.137Z,995.86
2019-03-10T09:06:44.812Z,995.86
2019-03-10T09:07:44.095Z,995.81
2019-03-10T09:08:44.063Z,995.79
2019-03-10T09:09:45.876Z,995.75
2019-03-10T09:10:44.172Z,995.71
2019-03-10T09:11:43.988Z,995.69
2019-03-10T09:12:43.965Z,995.72
2019-03-10T09:13:43.990Z,995.69
2019-03-10T09:14:43.945Z,995.70
2019-03-10T09:15:43.900Z,995.70
2019-03-10T09:16:43.866Z,995.71
2019-03-10T09:17:43.843Z,995.71
2019-03-10T09:18:43.818Z,995.73
2019-03-10T09:19:43.797Z,995.72
2019-03-10T09:20:43.779Z,995.72
2019-03-10T09:21:43.753Z,995.68
2019-03-10T09:22:43.721Z,995.62
2019-03-10T09:23:43.727Z,995.56
2019-03-10T09:24:43.689Z,995.54
2019-03-10T09:25:43.649Z,995.51
2019-03-10T09:26:43.626Z,995.50
2019-03-10T09:27:43.632Z,995.52
2019-03-10T09:28:43.591Z,995.57
2019-03-10T09:29:43.553Z,995.50
2019-03-10T09:30:43.535Z,995.48
2019-03-10T09:31:43.511Z,995.47
2019-03-10T09:32:43.487Z,995.43
2019-03-10T09:33:43.463Z,995.41
2019-03-10T09:34:43.436Z,995.39
2019-03-10T09:35:43.410Z,995.38
2019-03-10T09:36:43.383Z,995.37
2019-03-10T09:37:43.367Z,995.30
2019-03-10T09:38:43.343Z,995.26
2019-03-10T09:39:43.316Z,995.21
2019-03-10T09:40:43.288Z,995.18
2019-03-10T09:41:43.274Z,995.14
2019-03-10T09:42:43.241Z,995.13
2019-03-10T09:43:43.217Z,995.21
2019-03-10T09:44:43.212Z,995.18
2019-03-10T09:45:43.173Z,995.12
2019-03-10T09:46:43.151Z,995.02
2019-03-10T09:47:43.150Z,994.92
2019-03-10T09:48:43.105Z,994.92
2019-03-10T09:49:43.081Z,994.94
2019-03-10T09:50:43.053Z,995.03
2019-03-10T09:51:43.027Z,995.02
2019-03-10T09:52:43.002Z,994.93
2019-03-10T09:53:42.976Z,994.84
2019-03-10T09:54:42.963Z,994.81
2019-03-10T09:55:42.929Z,994.86
2019-03-10T09:56:42.913Z,994.87
2019-03-10T09:57:42.886Z,994.88
2019-03-10T09:58:42.862Z,994.88
2019-03-10T09:59:42.835Z,994.83
2019-03-10T10:00:42.810Z,994.75
2019-03-10T10:01:42.787Z,994.63
2019-03-10T10:02:42.768Z,994.55
2019-03-10T10:03:42.737Z,994.53
2019-03-10T10:04:42.715Z,994.54
2019-03-10T10:05:42.699Z,994.50
2019-03-10T10:06:42.667Z,994.51
2019-03-10T10:07:42.653Z,994.43
2019-03-10T10:08:45.106Z,994.42
2019-03-10T10:09:42.604Z,994.33
2019-03-10T10:10:42.581Z,994.18
2019-03-10T10:11:42.599Z,994.12
2019-03-10T10:12:42.528Z,994.08
2019-03-10T10:13:42.500Z,994.14
2019-03-10T10:14:42.477Z,994.17
2019-03-10T10:15:42.460Z,994.27
2019-03-10T10:16:42.429Z,994.29
2019-03-10T10:17:42.421Z,994.33
2019-03-10T10:18:42.381Z,994.26
2019-03-10T10:19:42.358Z,994.28
2019-03-10T10:20:42.336Z,994.25
2019-03-10T10:21:42.317Z,994.19
2019-03-10T10:22:42.290Z,994.15
2019-03-10T10:23:42.262Z,994.17
2019-03-10T10:24:42.237Z,994.17
2019-03-10T10:25:42.227Z,994.09
2019-03-10T10:26:42.190Z,994.03
2019-03-10T10:27:42.167Z,993.95
2019-03-10T10:28:42.143Z,993.91
2019-03-10T10:29:42.119Z,994.07
2019-03-10T10:30:42.109Z,994.14
2019-03-10T10:31:42.100Z,994.14
2019-03-10T10:32:42.054Z,994.12
2019-03-10T10:33:42.024Z,994.01
2019-03-10T10:34:42.003Z,993.96
2019-03-10T10:35:41.984Z,993.93
2019-03-10T10:36:41.974Z,993.91
2019-03-10T10:37:41.953Z,993.92
2019-03-10T10:38:41.905Z,993.92
2019-03-10T10:39:41.907Z,993.96
2019-03-10T10:40:41.867Z,993.97
2019-03-10T10:41:41.844Z,993.94
2019-03-10T10:42:41.824Z,993.80
2019-03-10T10:43:41.798Z,993.81
2019-03-10T10:44:41.828Z,993.76
2019-03-10T10:45:41.744Z,993.79
2019-03-10T10:46:41.713Z,993.81
2019-03-10T10:47:41.693Z,993.80
2019-03-10T10:48:41.678Z,993.71
2019-03-10T10:49:41.679Z,993.71
2019-03-10T10:50:41.640Z,993.69
2019-03-10T10:51:41.605Z,993.53
2019-03-10T10:52:41.589Z,993.46
2019-03-10T10:53:41.572Z,993.48
2019-03-10T10:54:41.525Z,993.51
2019-03-10T10:55:41.506Z,993.51
2019-03-10T10:56:41.486Z,993.47
2019-03-10T10:57:41.477Z,993.47
2019-03-10T10:58:41.451Z,993.44
2019-03-10T10:59:41.413Z,993.41
2019-03-10T11:00:41.389Z,993.43
2019-03-10T11:01:41.368Z,993.47
2019-03-10T11:02:41.346Z,993.41
2019-03-10T11:03:41.317Z,993.42
2019-03-10T11:04:41.299Z,993.39
2019-03-10T11:05:41.273Z,993.35
2019-03-10T11:06:41.251Z,993.34
2019-03-10T11:07:41.234Z,993.30
2019-03-10T11:08:41.195Z,993.29
2019-03-10T11:09:41.179Z,993.24
2019-03-10T11:10:41.158Z,993.17
2019-03-10T11:11:42.079Z,993.12
2019-03-10T11:12:41.124Z,993.09
2019-03-10T11:13:41.078Z,993.14
2019-03-10T11:14:41.063Z,993.19
2019-03-10T11:15:41.029Z,993.16
2019-03-10T11:16:41.013Z,993.12
2019-03-10T11:17:40.982Z,993.08
2019-03-10T11:18:40.974Z,993.01
2019-03-10T11:19:40.958Z,993.03
2019-03-10T11:20:40.926Z,992.98
2019-03-10T11:21:40.889Z,992.97
2019-03-10T11:22:40.928Z,992.96
2019-03-10T11:23:40.852Z,992.94
2019-03-10T11:24:40.835Z,992.89
2019-03-10T11:25:40.805Z,992.92
2019-03-10T11:26:40.772Z,992.95
2019-03-10T11:27:40.754Z,992.94
2019-03-10T11:28:40.725Z,992.93
2019-03-10T11:29:40.706Z,992.96
2019-03-10T11:30:40.677Z,992.97
2019-03-10T11:31:40.694Z,992.95
2019-03-10T11:32:40.639Z,992.86
2019-03-10T11:33:40.603Z,992.83
2019-03-10T11:34:40.592Z,992.86
2019-03-10T11:35:40.556Z,992.83
2019-03-10T11:36:40.535Z,992.84
2019-03-10T11:37:40.513Z,992.82
2019-03-10T11:38:40.487Z,992.77
2019-03-10T11:39:40.490Z,992.75
2019-03-10T11:40:40.447Z,992.71
2019-03-10T11:41:42.140Z,992.69
2019-03-10T11:42:40.404Z,992.77
2019-03-10T11:43:40.368Z,992.66
2019-03-10T11:44:40.362Z,992.62
2019-03-10T11:45:40.347Z,992.56
2019-03-10T11:46:40.313Z,992.48
2019-03-10T11:47:40.311Z,992.48
2019-03-10T11:48:40.249Z,992.49
2019-03-10T11:49:40.236Z,992.46
2019-03-10T11:50:40.213Z,992.42
2019-03-10T11:51:40.179Z,992.41
2019-03-10T11:52:40.163Z,992.36
2019-03-10T11:53:40.134Z,992.37
2019-03-10T11:54:40.121Z,992.39
2019-03-10T11:55:40.087Z,992.34
2019-03-10T11:56:42.181Z,992.32
2019-03-10T11:57:40.038Z,992.30
2019-03-10T11:58:40.015Z,992.25
2019-03-10T11:59:39.996Z,992.24
2019-03-10T12:00:39.974Z,992.24
2019-03-10T12:01:39.948Z,992.18
2019-03-10T12:02:39.929Z,992.17
2019-03-10T12:03:39.903Z,992.12
2019-03-10T12:04:39.875Z,992.18
2019-03-10T12:05:39.853Z,992.13
2019-03-10T12:06:39.825Z,992.18
2019-03-10T12:07:39.803Z,992.12
2019-03-10T12:08:39.782Z,992.10
2019-03-10T12:09:39.764Z,992.06
2019-03-10T12:10:39.736Z,992.08
2019-03-10T12:11:39.708Z,991.99
2019-03-10T12:12:39.688Z,991.94
2019-03-10T12:13:39.673Z,991.92
2019-03-10T12:14:39.638Z,991.87
2019-03-10T12:15:39.617Z,991.88
2019-03-10T12:16:39.609Z,991.82
2019-03-10T12:17:39.573Z,991.77